sensor_id;sensor_type;location;lat;lon;timestamp;P1;durP1;ratioP1;P2;durP2;ratioP2
7166;SDS011;3625;51.762;14.320;2024-03-23T00:53:56;18.03;;;15.10;;
7166;SDS011;3625;51.762;14.320;2024-03-23T00:56:25;20.77;;;14.43;;
7166;SDS011;3625;51.762;14.320;2024-03-23T00:58:51;18.33;;;15.53;;
7166;SDS011;3625;51.762;14.320;2024-03-23T01:01:19;17.73;;;14.23;;
7166;SDS011;3625;51.762;14.320;2024-03-23T01:03:46;16.20;;;13.93;;
7166;SDS011;3625;51.762;14.320;2024-03-23T01:06:13;18.90;;;13.83;;
7166;SDS011;3625;51.762;14.320;2024-03-23T01:08:40;15.17;;;13.00;;
7166;SDS011;3625;51.762;14.320;2024-03-23T01:11:09;12.33;;;11.03;;
7166;SDS011;3625;51.762;14.320;2024-03-23T01:13:35;15.40;;;12.30;;
7166;SDS011;3625;51.762;14.320;2024-03-23T01:16:03;14.27;;;11.80;;
7166;SDS011;3625;51.762;14.320;2024-03-23T01:18:30;14.73;;;12.40;;
7166;SDS011;3625;51.762;14.320;2024-03-23T01:20:58;17.13;;;12.33;;
7166;SDS011;3625;51.762;14.320;2024-03-23T01:23:24;14.27;;;12.00;;
7166;SDS011;3625;51.762;14.320;2024-03-23T01:25:52;12.97;;;11.50;;
7166;SDS011;3625;51.762;14.320;2024-03-23T01:28:21;15.30;;;11.23;;
7166;SDS011;3625;51.762;14.320;2024-03-23T01:30:49;12.77;;;10.83;;
7166;SDS011;3625;51.762;14.320;2024-03-23T01:33:15;15.37;;;12.47;;
7166;SDS011;3625;51.762;14.320;2024-03-23T01:35:43;15.67;;;13.00;;
7166;SDS011;3625;51.762;14.320;2024-03-23T01:38:09;14.10;;;11.90;;
7166;SDS011;3625;51.762;14.320;2024-03-23T01:40:37;16.83;;;12.10;;
7166;SDS011;3625;51.762;14.320;2024-03-23T01:43:04;15.80;;;12.40;;
7166;SDS011;3625;51.762;14.320;2024-03-23T01:45:35;14.63;;;11.77;;
7166;SDS011;3625;51.762;14.320;2024-03-23T01:48:02;14.30;;;11.53;;
7166;SDS011;3625;51.762;14.320;2024-03-23T01:50:31;16.53;;;13.10;;
7166;SDS011;3625;51.762;14.320;2024-03-23T01:52:59;16.87;;;13.13;;
7166;SDS011;3625;51.762;14.320;2024-03-23T01:55:30;17.17;;;13.73;;
7166;SDS011;3625;51.762;14.320;2024-03-23T01:57:58;15.37;;;13.40;;
7166;SDS011;3625;51.762;14.320;2024-03-23T02:00:25;16.40;;;13.27;;
7166;SDS011;3625;51.762;14.320;2024-03-23T02:02:54;18.00;;;14.70;;
7166;SDS011;3625;51.762;14.320;2024-03-23T02:05:22;19.50;;;14.50;;
7166;SDS011;3625;51.762;14.320;2024-03-23T02:07:48;16.97;;;12.80;;
7166;SDS011;3625;51.762;14.320;2024-03-23T02:10:17;18.40;;;13.67;;
7166;SDS011;3625;51.762;14.320;2024-03-23T02:12:44;18.47;;;13.47;;
7166;SDS011;3625;51.762;14.320;2024-03-23T02:15:11;17.90;;;13.93;;
7166;SDS011;3625;51.762;14.320;2024-03-23T02:17:38;17.27;;;13.73;;
7166;SDS011;3625;51.762;14.320;2024-03-23T02:20:07;17.90;;;14.33;;
7166;SDS011;3625;51.762;14.320;2024-03-23T02:22:35;17.33;;;13.73;;
7166;SDS011;3625;51.762;14.320;2024-03-23T02:25:05;13.70;;;11.13;;
7166;SDS011;3625;51.762;14.320;2024-03-23T02:27:32;10.07;;;6.13;;
7166;SDS011;3625;51.762;14.320;2024-03-23T02:30:01;7.37;;;4.07;;
7166;SDS011;3625;51.762;14.320;2024-03-23T02:32:28;8.07;;;3.87;;
7166;SDS011;3625;51.762;14.320;2024-03-23T02:34:56;8.00;;;3.30;;
7166;SDS011;3625;51.762;14.320;2024-03-23T02:37:22;7.53;;;2.80;;
7166;SDS011;3625;51.762;14.320;2024-03-23T02:39:50;12.17;;;3.93;;
7166;SDS011;3625;51.762;14.320;2024-03-23T02:42:18;8.30;;;4.10;;
7166;SDS011;3625;51.762;14.320;2024-03-23T02:44:45;12.47;;;3.70;;
7166;SDS011;3625;51.762;14.320;2024-03-23T02:47:12;9.57;;;3.73;;
7166;SDS011;3625;51.762;14.320;2024-03-23T02:49:39;7.03;;;3.37;;
7166;SDS011;3625;51.762;14.320;2024-03-23T02:52:06;7.53;;;3.10;;
7166;SDS011;3625;51.762;14.320;2024-03-23T02:54:33;11.00;;;3.87;;
7166;SDS011;3625;51.762;14.320;2024-03-23T02:57:00;8.20;;;3.97;;
7166;SDS011;3625;51.762;14.320;2024-03-23T02:59:29;7.27;;;3.83;;
7166;SDS011;3625;51.762;14.320;2024-03-23T03:01:55;5.37;;;3.03;;
7166;SDS011;3625;51.762;14.320;2024-03-23T03:04:25;7.97;;;3.47;;
7166;SDS011;3625;51.762;14.320;2024-03-23T03:06:51;10.30;;;3.80;;
7166;SDS011;3625;51.762;14.320;2024-03-23T03:09:19;11.10;;;4.30;;
7166;SDS011;3625;51.762;14.320;2024-03-23T03:11:46;9.23;;;3.27;;
7166;SDS011;3625;51.762;14.320;2024-03-23T03:14:14;7.80;;;3.30;;
7166;SDS011;3625;51.762;14.320;2024-03-23T03:16:42;6.23;;;3.37;;
7166;SDS011;3625;51.762;14.320;2024-03-23T03:19:09;7.87;;;3.80;;
7166;SDS011;3625;51.762;14.320;2024-03-23T03:21:36;7.60;;;3.70;;
7166;SDS011;3625;51.762;14.320;2024-03-23T03:24:05;6.07;;;3.20;;
7166;SDS011;3625;51.762;14.320;2024-03-23T03:26:32;6.37;;;3.20;;
7166;SDS011;3625;51.762;14.320;2024-03-23T03:29:00;8.43;;;3.20;;
7166;SDS011;3625;51.762;14.320;2024-03-23T03:31:27;10.83;;;3.30;;
7166;SDS011;3625;51.762;14.320;2024-03-23T03:33:56;6.67;;;3.03;;
7166;SDS011;3625;51.762;14.320;2024-03-23T03:36:23;7.43;;;3.20;;
7166;SDS011;3625;51.762;14.320;2024-03-23T03:38:50;9.27;;;3.30;;
7166;SDS011;3625;51.762;14.320;2024-03-23T03:41:18;7.53;;;3.43;;
7166;SDS011;3625;51.762;14.320;2024-03-23T03:43:46;8.73;;;3.20;;
7166;SDS011;3625;51.762;14.320;2024-03-23T03:46:12;9.73;;;3.63;;
7166;SDS011;3625;51.762;14.320;2024-03-23T03:48:40;8.80;;;3.47;;
7166;SDS011;3625;51.762;14.320;2024-03-23T03:51:08;10.03;;;4.03;;
7166;SDS011;3625;51.762;14.320;2024-03-23T03:53:35;6.13;;;3.50;;
7166;SDS011;3625;51.762;14.320;2024-03-23T03:56:02;9.37;;;3.47;;
7166;SDS011;3625;51.762;14.320;2024-03-23T03:58:30;6.67;;;3.93;;
7166;SDS011;3625;51.762;14.320;2024-03-23T04:00:56;11.20;;;3.67;;
7166;SDS011;3625;51.762;14.320;2024-03-23T04:03:24;6.23;;;2.97;;
7166;SDS011;3625;51.762;14.320;2024-03-23T04:05:51;6.13;;;2.97;;
7166;SDS011;3625;51.762;14.320;2024-03-23T04:08:20;7.53;;;3.10;;
7166;SDS011;3625;51.762;14.320;2024-03-23T04:10:47;9.00;;;3.57;;
7166;SDS011;3625;51.762;14.320;2024-03-23T04:13:14;14.70;;;3.77;;
7166;SDS011;3625;51.762;14.320;2024-03-23T04:15:41;8.60;;;2.87;;
7166;SDS011;3625;51.762;14.320;2024-03-23T04:18:09;11.20;;;4.33;;
7166;SDS011;3625;51.762;14.320;2024-03-23T04:20:36;7.17;;;3.37;;
7166;SDS011;3625;51.762;14.320;2024-03-23T04:23:03;7.80;;;2.93;;
7166;SDS011;3625;51.762;14.320;2024-03-23T04:25:31;6.73;;;2.77;;
7166;SDS011;3625;51.762;14.320;2024-03-23T04:27:59;9.10;;;3.20;;
7166;SDS011;3625;51.762;14.320;2024-03-23T04:30:26;6.70;;;2.97;;
7166;SDS011;3625;51.762;14.320;2024-03-23T04:32:54;9.17;;;2.87;;
7166;SDS011;3625;51.762;14.320;2024-03-23T04:35:22;8.07;;;3.13;;
7166;SDS011;3625;51.762;14.320;2024-03-23T04:37:50;9.00;;;3.13;;
7166;SDS011;3625;51.762;14.320;2024-03-23T04:40:18;8.60;;;3.20;;
7166;SDS011;3625;51.762;14.320;2024-03-23T04:42:47;8.23;;;3.40;;
7166;SDS011;3625;51.762;14.320;2024-03-23T04:45:15;7.03;;;3.07;;
7166;SDS011;3625;51.762;14.320;2024-03-23T04:47:42;12.33;;;3.53;;
7166;SDS011;3625;51.762;14.320;2024-03-23T04:50:10;6.83;;;3.47;;
7166;SDS011;3625;51.762;14.320;2024-03-23T04:52:38;9.40;;;3.70;;
7166;SDS011;3625;51.762;14.320;2024-03-23T04:55:06;9.20;;;3.07;;
7166;SDS011;3625;51.762;14.320;2024-03-23T04:57:33;7.00;;;3.17;;
7166;SDS011;3625;51.762;14.320;2024-03-23T05:00:02;6.83;;;2.80;;
7166;SDS011;3625;51.762;14.320;2024-03-23T05:02:40;10.90;;;3.50;;
7166;SDS011;3625;51.762;14.320;2024-03-23T05:05:07;11.37;;;3.60;;
7166;SDS011;3625;51.762;14.320;2024-03-23T05:07:34;6.03;;;2.97;;
7166;SDS011;3625;51.762;14.320;2024-03-23T05:10:03;7.87;;;3.40;;
7166;SDS011;3625;51.762;14.320;2024-03-23T05:12:30;9.20;;;3.83;;
7166;SDS011;3625;51.762;14.320;2024-03-23T05:14:57;7.80;;;3.43;;
7166;SDS011;3625;51.762;14.320;2024-03-23T05:17:25;8.03;;;3.60;;
7166;SDS011;3625;51.762;14.320;2024-03-23T05:19:53;8.37;;;3.40;;
7166;SDS011;3625;51.762;14.320;2024-03-23T05:22:19;3.90;;;2.60;;
7166;SDS011;3625;51.762;14.320;2024-03-23T05:24:46;8.70;;;2.93;;
7166;SDS011;3625;51.762;14.320;2024-03-23T05:27:13;7.53;;;3.30;;
7166;SDS011;3625;51.762;14.320;2024-03-23T05:29:41;6.90;;;2.87;;
7166;SDS011;3625;51.762;14.320;2024-03-23T05:32:08;6.07;;;2.90;;
7166;SDS011;3625;51.762;14.320;2024-03-23T05:34:36;11.07;;;3.17;;
7166;SDS011;3625;51.762;14.320;2024-03-23T05:37:03;7.40;;;2.87;;
7166;SDS011;3625;51.762;14.320;2024-03-23T05:39:31;5.53;;;2.83;;
7166;SDS011;3625;51.762;14.320;2024-03-23T05:41:57;9.47;;;3.17;;
7166;SDS011;3625;51.762;14.320;2024-03-23T05:44:25;6.67;;;3.20;;
7166;SDS011;3625;51.762;14.320;2024-03-23T05:46:51;9.20;;;3.17;;
7166;SDS011;3625;51.762;14.320;2024-03-23T05:49:19;9.33;;;3.20;;
7166;SDS011;3625;51.762;14.320;2024-03-23T05:51:48;7.37;;;3.33;;
7166;SDS011;3625;51.762;14.320;2024-03-23T05:54:15;7.53;;;3.10;;
7166;SDS011;3625;51.762;14.320;2024-03-23T05:56:41;6.40;;;3.10;;
7166;SDS011;3625;51.762;14.320;2024-03-23T05:59:09;5.17;;;2.67;;
7166;SDS011;3625;51.762;14.320;2024-03-23T06:01:35;6.40;;;2.60;;
7166;SDS011;3625;51.762;14.320;2024-03-23T06:04:04;5.47;;;2.77;;
7166;SDS011;3625;51.762;14.320;2024-03-23T06:06:31;10.10;;;2.90;;
7166;SDS011;3625;51.762;14.320;2024-03-23T06:08:59;6.67;;;2.70;;
7166;SDS011;3625;51.762;14.320;2024-03-23T06:11:26;8.40;;;3.57;;
7166;SDS011;3625;51.762;14.320;2024-03-23T06:13:53;5.40;;;2.70;;
7166;SDS011;3625;51.762;14.320;2024-03-23T06:16:21;8.03;;;2.90;;
7166;SDS011;3625;51.762;14.320;2024-03-23T06:18:50;6.73;;;3.13;;
7166;SDS011;3625;51.762;14.320;2024-03-23T06:21:16;6.00;;;2.80;;
7166;SDS011;3625;51.762;14.320;2024-03-23T06:23:44;7.23;;;3.07;;
7166;SDS011;3625;51.762;14.320;2024-03-23T06:26:17;12.47;;;3.30;;
7166;SDS011;3625;51.762;14.320;2024-03-23T06:28:45;6.10;;;2.50;;
7166;SDS011;3625;51.762;14.320;2024-03-23T06:31:12;4.30;;;2.40;;
7166;SDS011;3625;51.762;14.320;2024-03-23T06:33:40;7.33;;;3.53;;
7166;SDS011;3625;51.762;14.320;2024-03-23T06:36:08;5.33;;;2.97;;
7166;SDS011;3625;51.762;14.320;2024-03-23T06:38:37;6.70;;;2.90;;
7166;SDS011;3625;51.762;14.320;2024-03-23T06:41:04;10.00;;;3.17;;
7166;SDS011;3625;51.762;14.320;2024-03-23T06:43:33;7.37;;;2.97;;
7166;SDS011;3625;51.762;14.320;2024-03-23T06:45:59;8.20;;;3.03;;
7166;SDS011;3625;51.762;14.320;2024-03-23T06:48:29;5.23;;;2.93;;
7166;SDS011;3625;51.762;14.320;2024-03-23T06:50:55;5.17;;;2.53;;
7166;SDS011;3625;51.762;14.320;2024-03-23T06:53:24;6.77;;;2.90;;
7166;SDS011;3625;51.762;14.320;2024-03-23T06:55:50;7.57;;;3.27;;
7166;SDS011;3625;51.762;14.320;2024-03-23T06:58:19;8.80;;;4.50;;
7166;SDS011;3625;51.762;14.320;2024-03-23T07:00:47;6.30;;;2.80;;
7166;SDS011;3625;51.762;14.320;2024-03-23T07:03:15;4.87;;;2.83;;
7166;SDS011;3625;51.762;14.320;2024-03-23T07:05:42;5.40;;;3.00;;
7166;SDS011;3625;51.762;14.320;2024-03-23T07:08:11;7.83;;;2.87;;
7166;SDS011;3625;51.762;14.320;2024-03-23T07:10:39;4.57;;;2.80;;
7166;SDS011;3625;51.762;14.320;2024-03-23T07:13:09;8.33;;;2.77;;
7166;SDS011;3625;51.762;14.320;2024-03-23T07:15:36;6.57;;;2.60;;
7166;SDS011;3625;51.762;14.320;2024-03-23T07:18:05;10.10;;;3.03;;
7166;SDS011;3625;51.762;14.320;2024-03-23T07:20:31;6.17;;;3.13;;
7166;SDS011;3625;51.762;14.320;2024-03-23T07:22:59;7.27;;;3.23;;
7166;SDS011;3625;51.762;14.320;2024-03-23T07:25:28;7.33;;;3.17;;
7166;SDS011;3625;51.762;14.320;2024-03-23T07:27:57;6.93;;;2.83;;
7166;SDS011;3625;51.762;14.320;2024-03-23T07:30:23;6.60;;;3.17;;
7166;SDS011;3625;51.762;14.320;2024-03-23T07:32:52;6.20;;;3.03;;
7166;SDS011;3625;51.762;14.320;2024-03-23T07:35:20;8.57;;;3.17;;
7166;SDS011;3625;51.762;14.320;2024-03-23T07:37:47;6.97;;;3.17;;
7166;SDS011;3625;51.762;14.320;2024-03-23T07:40:14;5.87;;;3.37;;
7166;SDS011;3625;51.762;14.320;2024-03-23T07:42:41;6.70;;;3.07;;
7166;SDS011;3625;51.762;14.320;2024-03-23T07:45:08;6.87;;;3.17;;
7166;SDS011;3625;51.762;14.320;2024-03-23T07:47:36;4.83;;;2.70;;
7166;SDS011;3625;51.762;14.320;2024-03-23T07:50:02;6.17;;;2.80;;
7166;SDS011;3625;51.762;14.320;2024-03-23T07:52:32;4.80;;;2.80;;
7166;SDS011;3625;51.762;14.320;2024-03-23T07:54:58;6.73;;;3.00;;
7166;SDS011;3625;51.762;14.320;2024-03-23T07:57:26;8.07;;;3.00;;
7166;SDS011;3625;51.762;14.320;2024-03-23T07:59:52;5.70;;;3.30;;
7166;SDS011;3625;51.762;14.320;2024-03-23T08:02:20;6.87;;;3.43;;
7166;SDS011;3625;51.762;14.320;2024-03-23T08:04:46;8.83;;;3.60;;
7166;SDS011;3625;51.762;14.320;2024-03-23T08:07:14;7.33;;;4.13;;
7166;SDS011;3625;51.762;14.320;2024-03-23T08:09:42;10.57;;;3.33;;
7166;SDS011;3625;51.762;14.320;2024-03-23T08:12:11;8.80;;;3.37;;
7166;SDS011;3625;51.762;14.320;2024-03-23T08:14:37;8.40;;;3.00;;
7166;SDS011;3625;51.762;14.320;2024-03-23T08:17:05;7.97;;;3.00;;
7166;SDS011;3625;51.762;14.320;2024-03-23T08:19:32;6.60;;;3.03;;
7166;SDS011;3625;51.762;14.320;2024-03-23T08:21:59;8.43;;;3.17;;
7166;SDS011;3625;51.762;14.320;2024-03-23T08:24:25;5.27;;;3.40;;
7166;SDS011;3625;51.762;14.320;2024-03-23T08:26:55;8.93;;;3.57;;
7166;SDS011;3625;51.762;14.320;2024-03-23T08:29:22;7.77;;;3.60;;
7166;SDS011;3625;51.762;14.320;2024-03-23T08:31:49;8.47;;;3.77;;
7166;SDS011;3625;51.762;14.320;2024-03-23T08:34:15;7.90;;;3.33;;
7166;SDS011;3625;51.762;14.320;2024-03-23T08:36:43;7.10;;;3.47;;
7166;SDS011;3625;51.762;14.320;2024-03-23T08:39:09;7.73;;;3.43;;
7166;SDS011;3625;51.762;14.320;2024-03-23T08:41:37;7.43;;;3.03;;
7166;SDS011;3625;51.762;14.320;2024-03-23T08:44:05;8.53;;;2.90;;
7166;SDS011;3625;51.762;14.320;2024-03-23T08:46:32;5.80;;;3.20;;
7166;SDS011;3625;51.762;14.320;2024-03-23T08:48:59;8.27;;;3.10;;
7166;SDS011;3625;51.762;14.320;2024-03-23T08:51:26;7.03;;;3.40;;
7166;SDS011;3625;51.762;14.320;2024-03-23T08:53:53;6.83;;;3.37;;
7166;SDS011;3625;51.762;14.320;2024-03-23T08:56:20;6.50;;;3.17;;
7166;SDS011;3625;51.762;14.320;2024-03-23T08:58:47;6.13;;;3.23;;
7166;SDS011;3625;51.762;14.320;2024-03-23T09:01:16;5.57;;;3.07;;
7166;SDS011;3625;51.762;14.320;2024-03-23T09:03:45;8.00;;;3.50;;
7166;SDS011;3625;51.762;14.320;2024-03-23T09:06:14;7.83;;;3.53;;
7166;SDS011;3625;51.762;14.320;2024-03-23T09:08:42;4.43;;;3.10;;
7166;SDS011;3625;51.762;14.320;2024-03-23T09:11:10;5.60;;;2.80;;
7166;SDS011;3625;51.762;14.320;2024-03-23T09:13:38;6.07;;;3.23;;
7166;SDS011;3625;51.762;14.320;2024-03-23T09:16:07;10.40;;;4.20;;
7166;SDS011;3625;51.762;14.320;2024-03-23T09:18:36;9.07;;;3.60;;
7166;SDS011;3625;51.762;14.320;2024-03-23T09:21:09;7.93;;;3.33;;
7166;SDS011;3625;51.762;14.320;2024-03-23T09:23:38;6.53;;;3.57;;
7166;SDS011;3625;51.762;14.320;2024-03-23T09:26:06;9.43;;;4.60;;
7166;SDS011;3625;51.762;14.320;2024-03-23T09:28:33;7.17;;;4.57;;
7166;SDS011;3625;51.762;14.320;2024-03-23T09:31:02;10.03;;;4.73;;
7166;SDS011;3625;51.762;14.320;2024-03-23T09:33:29;8.93;;;3.87;;
7166;SDS011;3625;51.762;14.320;2024-03-23T09:36:02;5.83;;;3.53;;
7166;SDS011;3625;51.762;14.320;2024-03-23T09:38:29;10.60;;;4.67;;
7166;SDS011;3625;51.762;14.320;2024-03-23T09:40:57;10.13;;;4.17;;
7166;SDS011;3625;51.762;14.320;2024-03-23T09:43:24;6.20;;;3.70;;
7166;SDS011;3625;51.762;14.320;2024-03-23T09:45:52;8.13;;;3.40;;
7166;SDS011;3625;51.762;14.320;2024-03-23T09:48:19;8.07;;;3.70;;
7166;SDS011;3625;51.762;14.320;2024-03-23T09:50:47;4.97;;;3.57;;
7166;SDS011;3625;51.762;14.320;2024-03-23T09:53:17;8.43;;;3.63;;
7166;SDS011;3625;51.762;14.320;2024-03-23T09:55:45;6.87;;;3.37;;
7166;SDS011;3625;51.762;14.320;2024-03-23T09:58:12;8.73;;;4.00;;
7166;SDS011;3625;51.762;14.320;2024-03-23T10:00:41;8.10;;;3.73;;
7166;SDS011;3625;51.762;14.320;2024-03-23T10:03:08;6.57;;;4.10;;
7166;SDS011;3625;51.762;14.320;2024-03-23T10:05:36;7.40;;;4.53;;
7166;SDS011;3625;51.762;14.320;2024-03-23T10:08:18;8.83;;;4.73;;
7166;SDS011;3625;51.762;14.320;2024-03-23T10:10:51;9.10;;;4.80;;
7166;SDS011;3625;51.762;14.320;2024-03-23T10:13:24;8.17;;;4.97;;
7166;SDS011;3625;51.762;14.320;2024-03-23T10:15:55;6.87;;;3.97;;
7166;SDS011;3625;51.762;14.320;2024-03-23T10:18:23;9.27;;;5.13;;
7166;SDS011;3625;51.762;14.320;2024-03-23T10:21:06;6.60;;;4.13;;
7166;SDS011;3625;51.762;14.320;2024-03-23T10:23:36;7.23;;;4.70;;
7166;SDS011;3625;51.762;14.320;2024-03-23T10:26:15;2.70;;;2.50;;
7166;SDS011;3625;51.762;14.320;2024-03-23T10:28:54;4.53;;;2.07;;
7166;SDS011;3625;51.762;14.320;2024-03-23T10:31:26;1.93;;;1.83;;
7166;SDS011;3625;51.762;14.320;2024-03-23T10:33:53;2.10;;;2.00;;
7166;SDS011;3625;51.762;14.320;2024-03-23T10:36:21;1.97;;;1.87;;
7166;SDS011;3625;51.762;14.320;2024-03-23T10:38:51;2.13;;;2.03;;
7166;SDS011;3625;51.762;14.320;2024-03-23T10:41:24;2.63;;;2.30;;
7166;SDS011;3625;51.762;14.320;2024-03-23T10:43:53;2.30;;;2.20;;
7166;SDS011;3625;51.762;14.320;2024-03-23T10:46:24;4.23;;;2.33;;
7166;SDS011;3625;51.762;14.320;2024-03-23T10:48:51;2.57;;;2.40;;
7166;SDS011;3625;51.762;14.320;2024-03-23T10:51:19;2.60;;;2.40;;
7166;SDS011;3625;51.762;14.320;2024-03-23T10:53:45;2.37;;;2.17;;
7166;SDS011;3625;51.762;14.320;2024-03-23T10:56:16;3.00;;;2.80;;
7166;SDS011;3625;51.762;14.320;2024-03-23T10:58:46;2.50;;;2.40;;
7166;SDS011;3625;51.762;14.320;2024-03-23T11:01:16;2.63;;;2.43;;
7166;SDS011;3625;51.762;14.320;2024-03-23T11:03:44;2.37;;;2.27;;
7166;SDS011;3625;51.762;14.320;2024-03-23T11:06:34;2.53;;;2.43;;
7166;SDS011;3625;51.762;14.320;2024-03-23T11:09:02;2.30;;;2.20;;
7166;SDS011;3625;51.762;14.320;2024-03-23T11:11:32;2.63;;;2.47;;
7166;SDS011;3625;51.762;14.320;2024-03-23T11:13:59;2.30;;;2.20;;
7166;SDS011;3625;51.762;14.320;2024-03-23T11:16:39;2.10;;;1.90;;
7166;SDS011;3625;51.762;14.320;2024-03-23T11:19:35;2.10;;;2.00;;
7166;SDS011;3625;51.762;14.320;2024-03-23T11:22:04;2.30;;;2.20;;
7166;SDS011;3625;51.762;14.320;2024-03-23T11:24:31;1.70;;;1.70;;
7166;SDS011;3625;51.762;14.320;2024-03-23T11:27:00;2.03;;;1.93;;
7166;SDS011;3625;51.762;14.320;2024-03-23T11:29:29;1.83;;;1.80;;
7166;SDS011;3625;51.762;14.320;2024-03-23T11:31:57;2.33;;;2.23;;
7166;SDS011;3625;51.762;14.320;2024-03-23T11:34:24;1.73;;;1.63;;
7166;SDS011;3625;51.762;14.320;2024-03-23T11:36:53;1.80;;;1.70;;
7166;SDS011;3625;51.762;14.320;2024-03-23T11:39:30;1.90;;;1.80;;
7166;SDS011;3625;51.762;14.320;2024-03-23T11:41:58;1.90;;;1.80;;
7166;SDS011;3625;51.762;14.320;2024-03-23T11:44:26;1.90;;;1.80;;
7166;SDS011;3625;51.762;14.320;2024-03-23T11:46:54;1.83;;;1.73;;
7166;SDS011;3625;51.762;14.320;2024-03-23T11:49:34;2.57;;;1.83;;
7166;SDS011;3625;51.762;14.320;2024-03-23T11:52:06;2.13;;;2.00;;
7166;SDS011;3625;51.762;14.320;2024-03-23T11:54:33;2.03;;;1.93;;
7166;SDS011;3625;51.762;14.320;2024-03-23T11:57:02;2.03;;;1.93;;
7166;SDS011;3625;51.762;14.320;2024-03-23T11:59:33;2.30;;;2.20;;
7166;SDS011;3625;51.762;14.320;2024-03-23T12:02:05;2.17;;;1.97;;
7166;SDS011;3625;51.762;14.320;2024-03-23T12:04:33;2.10;;;2.00;;
7166;SDS011;3625;51.762;14.320;2024-03-23T12:07:10;2.47;;;2.37;;
7166;SDS011;3625;51.762;14.320;2024-03-23T12:09:40;2.27;;;2.17;;
7166;SDS011;3625;51.762;14.320;2024-03-23T12:12:10;2.30;;;2.20;;
7166;SDS011;3625;51.762;14.320;2024-03-23T12:14:40;2.30;;;2.20;;
7166;SDS011;3625;51.762;14.320;2024-03-23T12:17:09;2.47;;;2.27;;
7166;SDS011;3625;51.762;14.320;2024-03-23T12:19:38;2.30;;;2.20;;
7166;SDS011;3625;51.762;14.320;2024-03-23T12:22:06;2.47;;;2.37;;
7166;SDS011;3625;51.762;14.320;2024-03-23T12:24:34;2.30;;;2.10;;
7166;SDS011;3625;51.762;14.320;2024-03-23T12:27:02;2.40;;;2.20;;
7166;SDS011;3625;51.762;14.320;2024-03-23T12:29:31;2.60;;;2.50;;
7166;SDS011;3625;51.762;14.320;2024-03-23T12:31:59;2.43;;;2.23;;
7166;SDS011;3625;51.762;14.320;2024-03-23T12:34:27;2.10;;;2.00;;
7166;SDS011;3625;51.762;14.320;2024-03-23T12:36:56;2.20;;;2.10;;
7166;SDS011;3625;51.762;14.320;2024-03-23T12:39:22;2.10;;;2.00;;
7166;SDS011;3625;51.762;14.320;2024-03-23T12:41:50;2.70;;;2.50;;
7166;SDS011;3625;51.762;14.320;2024-03-23T12:44:18;2.70;;;2.60;;
7166;SDS011;3625;51.762;14.320;2024-03-23T12:46:47;2.77;;;2.57;;
7166;SDS011;3625;51.762;14.320;2024-03-23T12:49:16;3.37;;;2.37;;
7166;SDS011;3625;51.762;14.320;2024-03-23T12:51:46;2.83;;;2.63;;
7166;SDS011;3625;51.762;14.320;2024-03-23T12:54:20;4.13;;;2.70;;
7166;SDS011;3625;51.762;14.320;2024-03-23T12:56:47;3.13;;;2.90;;
7166;SDS011;3625;51.762;14.320;2024-03-23T12:59:14;2.70;;;2.50;;
7166;SDS011;3625;51.762;14.320;2024-03-23T13:01:43;2.83;;;2.60;;
7166;SDS011;3625;51.762;14.320;2024-03-23T13:04:12;2.73;;;2.60;;
7166;SDS011;3625;51.762;14.320;2024-03-23T13:06:40;2.70;;;2.50;;
7166;SDS011;3625;51.762;14.320;2024-03-23T13:09:06;2.70;;;2.50;;
7166;SDS011;3625;51.762;14.320;2024-03-23T13:11:34;2.60;;;2.40;;
7166;SDS011;3625;51.762;14.320;2024-03-23T13:14:00;2.30;;;2.20;;
7166;SDS011;3625;51.762;14.320;2024-03-23T13:16:29;2.50;;;2.30;;
7166;SDS011;3625;51.762;14.320;2024-03-23T13:18:56;2.87;;;2.67;;
7166;SDS011;3625;51.762;14.320;2024-03-23T13:21:25;2.40;;;2.20;;
7166;SDS011;3625;51.762;14.320;2024-03-23T13:23:52;2.53;;;2.33;;
7166;SDS011;3625;51.762;14.320;2024-03-23T13:26:19;4.23;;;2.40;;
7166;SDS011;3625;51.762;14.320;2024-03-23T13:28:46;2.60;;;2.00;;
7166;SDS011;3625;51.762;14.320;2024-03-23T13:31:14;2.97;;;2.30;;
7166;SDS011;3625;51.762;14.320;2024-03-23T13:33:40;2.27;;;2.17;;
7166;SDS011;3625;51.762;14.320;2024-03-23T13:36:09;3.50;;;2.20;;
7166;SDS011;3625;51.762;14.320;2024-03-23T13:38:37;2.40;;;2.30;;
7166;SDS011;3625;51.762;14.320;2024-03-23T13:41:06;2.63;;;2.43;;
7166;SDS011;3625;51.762;14.320;2024-03-23T13:43:34;2.50;;;2.30;;
7166;SDS011;3625;51.762;14.320;2024-03-23T13:46:02;3.87;;;2.17;;
7166;SDS011;3625;51.762;14.320;2024-03-23T13:48:29;2.73;;;2.30;;
7166;SDS011;3625;51.762;14.320;2024-03-23T13:50:57;3.00;;;2.50;;
7166;SDS011;3625;51.762;14.320;2024-03-23T13:53:24;2.97;;;2.37;;
7166;SDS011;3625;51.762;14.320;2024-03-23T13:55:53;3.23;;;2.47;;
7166;SDS011;3625;51.762;14.320;2024-03-23T13:58:20;3.73;;;2.30;;
7166;SDS011;3625;51.762;14.320;2024-03-23T14:00:49;3.37;;;2.40;;
7166;SDS011;3625;51.762;14.320;2024-03-23T14:03:15;2.90;;;2.60;;
7166;SDS011;3625;51.762;14.320;2024-03-23T14:05:44;2.80;;;2.40;;
7166;SDS011;3625;51.762;14.320;2024-03-23T14:08:10;3.43;;;2.47;;
7166;SDS011;3625;51.762;14.320;2024-03-23T14:10:40;5.27;;;2.93;;
7166;SDS011;3625;51.762;14.320;2024-03-23T14:13:09;4.10;;;2.63;;
7166;SDS011;3625;51.762;14.320;2024-03-23T14:15:36;3.40;;;2.70;;
7166;SDS011;3625;51.762;14.320;2024-03-23T14:18:03;5.43;;;2.77;;
7166;SDS011;3625;51.762;14.320;2024-03-23T14:20:31;5.63;;;2.80;;
7166;SDS011;3625;51.762;14.320;2024-03-23T14:22:58;4.73;;;2.73;;
7166;SDS011;3625;51.762;14.320;2024-03-23T14:25:25;3.40;;;2.13;;
7166;SDS011;3625;51.762;14.320;2024-03-23T14:27:52;4.60;;;2.43;;
7166;SDS011;3625;51.762;14.320;2024-03-23T14:30:21;3.37;;;2.40;;
7166;SDS011;3625;51.762;14.320;2024-03-23T14:32:50;2.93;;;2.53;;
7166;SDS011;3625;51.762;14.320;2024-03-23T14:35:51;4.50;;;2.77;;
7166;SDS011;3625;51.762;14.320;2024-03-23T14:38:18;3.43;;;2.60;;
7166;SDS011;3625;51.762;14.320;2024-03-23T14:40:47;2.53;;;2.30;;
7166;SDS011;3625;51.762;14.320;2024-03-23T14:43:14;5.33;;;2.80;;
7166;SDS011;3625;51.762;14.320;2024-03-23T14:46:05;3.53;;;2.23;;
7166;SDS011;3625;51.762;14.320;2024-03-23T14:48:34;3.57;;;2.47;;
7166;SDS011;3625;51.762;14.320;2024-03-23T14:51:03;5.20;;;2.50;;
7166;SDS011;3625;51.762;14.320;2024-03-23T14:53:31;4.07;;;2.20;;
7166;SDS011;3625;51.762;14.320;2024-03-23T14:55:59;3.27;;;2.73;;
7166;SDS011;3625;51.762;14.320;2024-03-23T14:58:27;5.37;;;2.77;;
7166;SDS011;3625;51.762;14.320;2024-03-23T15:01:07;5.20;;;2.53;;
7166;SDS011;3625;51.762;14.320;2024-03-23T15:03:35;5.63;;;2.60;;
7166;SDS011;3625;51.762;14.320;2024-03-23T15:06:04;4.20;;;2.30;;
7166;SDS011;3625;51.762;14.320;2024-03-23T15:08:32;4.90;;;2.90;;
7166;SDS011;3625;51.762;14.320;2024-03-23T15:10:59;7.73;;;2.83;;
7166;SDS011;3625;51.762;14.320;2024-03-23T15:13:30;4.13;;;2.50;;
7166;SDS011;3625;51.762;14.320;2024-03-23T15:15:58;6.03;;;2.60;;
7166;SDS011;3625;51.762;14.320;2024-03-23T15:18:26;4.10;;;2.63;;
7166;SDS011;3625;51.762;14.320;2024-03-23T15:20:54;5.00;;;2.63;;
7166;SDS011;3625;51.762;14.320;2024-03-23T15:23:22;4.27;;;2.60;;
7166;SDS011;3625;51.762;14.320;2024-03-23T15:25:56;5.77;;;3.00;;
7166;SDS011;3625;51.762;14.320;2024-03-23T15:28:24;4.73;;;2.40;;
7166;SDS011;3625;51.762;14.320;2024-03-23T15:30:52;5.70;;;2.80;;
7166;SDS011;3625;51.762;14.320;2024-03-23T15:33:23;5.77;;;2.73;;
7166;SDS011;3625;51.762;14.320;2024-03-23T15:35:52;4.53;;;2.60;;
7166;SDS011;3625;51.762;14.320;2024-03-23T15:38:19;6.27;;;2.60;;
7166;SDS011;3625;51.762;14.320;2024-03-23T15:40:50;3.67;;;2.40;;
7166;SDS011;3625;51.762;14.320;2024-03-23T15:43:17;6.63;;;3.07;;
7166;SDS011;3625;51.762;14.320;2024-03-23T15:45:44;5.17;;;2.60;;
7166;SDS011;3625;51.762;14.320;2024-03-23T15:48:20;6.00;;;3.17;;
7166;SDS011;3625;51.762;14.320;2024-03-23T15:50:52;3.70;;;2.47;;
7166;SDS011;3625;51.762;14.320;2024-03-23T15:53:20;5.87;;;3.10;;
7166;SDS011;3625;51.762;14.320;2024-03-23T15:55:53;6.07;;;2.80;;
7166;SDS011;3625;51.762;14.320;2024-03-23T15:58:20;5.33;;;2.60;;